sensor_id;sensor_type;location;lat;lon;timestamp;temperature;humidity
5848;DHT22;8756;49.29324300;8.70599800;2023-02-20T00:00:29;8.90;99.90
5848;DHT22;8756;49.29324300;8.70599800;2023-02-20T00:02:57;8.90;99.90
5848;DHT22;8756;49.29324300;8.70599800;2023-02-20T00:05:23;8.90;99.90
5848;DHT22;8756;49.29324300;8.70599800;2023-02-20T00:07:48;8.90;99.90
5848;DHT22;8756;49.29324300;8.70599800;2023-02-20T00:10:15;8.80;99.90
5848;DHT22;8756;49.29324300;8.70599800;2023-02-20T00:12:42;8.90;99.90
5848;DHT22;8756;49.29324300;8.70599800;2023-02-20T00:15:08;8.90;99.90
5848;DHT22;8756;49.29324300;8.70599800;2023-02-20T00:17:34;8.90;99.90
5848;DHT22;8756;49.29324300;8.70599800;2023-02-20T00:20:01;8.90;99.90
5848;DHT22;8756;49.29324300;8.70599800;2023-02-20T00:22:27;8.80;99.90
5848;DHT22;8756;49.29324300;8.70599800;2023-02-20T00:24:52;8.80;99.90
5848;DHT22;8756;49.29324300;8.70599800;2023-02-20T00:27:18;8.80;99.90
5848;DHT22;8756;49.29324300;8.70599800;2023-02-20T00:29:45;8.80;99.90
5848;DHT22;8756;49.29324300;8.70599800;2023-02-20T00:32:12;8.80;99.90
5848;DHT22;8756;49.29324300;8.70599800;2023-02-20T00:34:37;8.80;99.90
5848;DHT22;8756;49.29324300;8.70599800;2023-02-20T00:37:03;8.80;99.90
5848;DHT22;8756;49.29324300;8.70599800;2023-02-20T00:39:30;8.80;99.90
5848;DHT22;8756;49.29324300;8.70599800;2023-02-20T00:41:56;8.80;99.90
5848;DHT22;8756;49.29324300;8.70599800;2023-02-20T00:44:23;8.70;99.90
5848;DHT22;8756;49.29324300;8.70599800;2023-02-20T00:46:49;8.70;99.90
5848;DHT22;8756;49.29324300;8.70599800;2023-02-20T00:49:15;8.70;99.90
5848;DHT22;8756;49.29324300;8.70599800;2023-02-20T00:51:40;8.70;99.90
5848;DHT22;8756;49.29324300;8.70599800;2023-02-20T00:54:06;8.60;99.90
5848;DHT22;8756;49.29324300;8.70599800;2023-02-20T00:56:32;8.60;99.90
5848;DHT22;8756;49.29324300;8.70599800;2023-02-20T00:58:57;8.60;99.90
5848;DHT22;8756;49.29324300;8.70599800;2023-02-20T01:01:23;8.50;99.90
5848;DHT22;8756;49.29324300;8.70599800;2023-02-20T01:03:49;8.50;99.90
5848;DHT22;8756;49.29324300;8.70599800;2023-02-20T01:06:15;8.40;99.90
5848;DHT22;8756;49.29324300;8.70599800;2023-02-20T01:08:41;8.40;99.90
5848;DHT22;8756;49.29324300;8.70599800;2023-02-20T01:11:07;8.30;99.90
5848;DHT22;8756;49.29324300;8.70599800;2023-02-20T01:13:32;8.30;99.90
5848;DHT22;8756;49.29324300;8.70599800;2023-02-20T01:15:58;8.30;99.90
5848;DHT22;8756;49.29324300;8.70599800;2023-02-20T01:18:24;8.30;99.90
5848;DHT22;8756;49.29324300;8.70599800;2023-02-20T01:20:50;8.30;99.90
5848;DHT22;8756;49.29324300;8.70599800;2023-02-20T01:23:16;8.20;99.90
5848;DHT22;8756;49.29324300;8.70599800;2023-02-20T01:25:42;8.20;99.90
5848;DHT22;8756;49.29324300;8.70599800;2023-02-20T01:28:08;8.20;99.90
5848;DHT22;8756;49.29324300;8.70599800;2023-02-20T01:30:33;8.10;99.90
5848;DHT22;8756;49.29324300;8.70599800;2023-02-20T01:32:59;8.10;99.90
5848;DHT22;8756;49.29324300;8.70599800;2023-02-20T01:35:25;8.00;99.90
5848;DHT22;8756;49.29324300;8.70599800;2023-02-20T01:37:55;8.00;99.90
5848;DHT22;8756;49.29324300;8.70599800;2023-02-20T01:40:22;7.90;99.90
5848;DHT22;8756;49.29324300;8.70599800;2023-02-20T01:42:48;7.90;99.90
5848;DHT22;8756;49.29324300;8.70599800;2023-02-20T01:47:44;7.80;99.90
5848;DHT22;8756;49.29324300;8.70599800;2023-02-20T01:50:10;7.80;99.90
5848;DHT22;8756;49.29324300;8.70599800;2023-02-20T01:52:37;7.80;99.90
5848;DHT22;8756;49.29324300;8.70599800;2023-02-20T01:55:16;7.80;99.90
5848;DHT22;8756;49.29324300;8.70599800;2023-02-20T01:58:00;7.70;99.90
5848;DHT22;8756;49.29324300;8.70599800;2023-02-20T02:00:28;7.70;99.90
5848;DHT22;8756;49.29324300;8.70599800;2023-02-20T02:02:59;7.70;99.90
5848;DHT22;8756;49.29324300;8.70599800;2023-02-20T02:05:30;7.70;99.90
5848;DHT22;8756;49.29324300;8.70599800;2023-02-20T02:07:59;7.60;99.90
5848;DHT22;8756;49.29324300;8.70599800;2023-02-20T02:10:52;7.60;99.90
5848;DHT22;8756;49.29324300;8.70599800;2023-02-20T02:13:21;7.60;99.90
5848;DHT22;8756;49.29324300;8.70599800;2023-02-20T02:15:56;7.50;99.90
5848;DHT22;8756;49.29324300;8.70599800;2023-02-20T02:21:49;7.50;99.90
5848;DHT22;8756;49.29324300;8.70599800;2023-02-20T02:27:59;7.40;99.90
5848;DHT22;8756;49.29324300;8.70599800;2023-02-20T02:37:02;7.30;99.90
5848;DHT22;8756;49.29324300;8.70599800;2023-02-20T02:43:04;7.30;99.90
5848;DHT22;8756;49.29324300;8.70599800;2023-02-20T02:45:51;7.20;99.90
5848;DHT22;8756;49.29324300;8.70599800;2023-02-20T02:48:38;7.20;99.90
5848;DHT22;8756;49.29324300;8.70599800;2023-02-20T02:51:13;7.20;99.90
5848;DHT22;8756;49.29324300;8.70599800;2023-02-20T02:53:41;7.20;99.90
5848;DHT22;8756;49.29324300;8.70599800;2023-02-20T02:56:43;7.20;99.90
5848;DHT22;8756;49.29324300;8.70599800;2023-02-20T02:59:14;7.10;99.90
5848;DHT22;8756;49.29324300;8.70599800;2023-02-20T03:01:46;7.10;99.90
5848;DHT22;8756;49.29324300;8.70599800;2023-02-20T03:04:15;7.00;99.90
5848;DHT22;8756;49.29324300;8.70599800;2023-02-20T03:06:52;7.10;99.90
5848;DHT22;8756;49.29324300;8.70599800;2023-02-20T03:09:31;7.00;99.90
5848;DHT22;8756;49.29324300;8.70599800;2023-02-20T03:12:00;7.00;99.90
5848;DHT22;8756;49.29324300;8.70599800;2023-02-20T03:14:32;7.00;99.90
5848;DHT22;8756;49.29324300;8.70599800;2023-02-20T03:17:28;6.90;99.90
5848;DHT22;8756;49.29324300;8.70599800;2023-02-20T03:19:57;6.90;99.90
5848;DHT22;8756;49.29324300;8.70599800;2023-02-20T03:22:29;6.90;99.90
5848;DHT22;8756;49.29324300;8.70599800;2023-02-20T03:25:03;6.90;99.90
5848;DHT22;8756;49.29324300;8.70599800;2023-02-20T03:30:31;6.90;99.90
5848;DHT22;8756;49.29324300;8.70599800;2023-02-20T03:33:16;6.80;99.90
5848;DHT22;8756;49.29324300;8.70599800;2023-02-20T03:36:08;6.80;99.90
5848;DHT22;8756;49.29324300;8.70599800;2023-02-20T03:39:07;6.80;99.90
5848;DHT22;8756;49.29324300;8.70599800;2023-02-20T03:41:56;6.80;99.90
5848;DHT22;8756;49.29324300;8.70599800;2023-02-20T03:44:43;6.80;99.90
5848;DHT22;8756;49.29324300;8.70599800;2023-02-20T03:47:12;6.80;99.90
5848;DHT22;8756;49.29324300;8.70599800;2023-02-20T03:49:41;6.70;99.90
5848;DHT22;8756;49.29324300;8.70599800;2023-02-20T03:52:07;6.70;99.90
5848;DHT22;8756;49.29324300;8.70599800;2023-02-20T03:54:34;6.70;99.90
5848;DHT22;8756;49.29324300;8.70599800;2023-02-20T03:57:04;6.60;99.90
5848;DHT22;8756;49.29324300;8.70599800;2023-02-20T03:59:46;6.60;99.90
5848;DHT22;8756;49.29324300;8.70599800;2023-02-20T04:02:22;6.60;99.90
5848;DHT22;8756;49.29324300;8.70599800;2023-02-20T04:04:56;6.50;99.90
5848;DHT22;8756;49.29324300;8.70599800;2023-02-20T04:07:28;6.50;99.90
5848;DHT22;8756;49.29324300;8.70599800;2023-02-20T04:09:59;6.50;99.90
5848;DHT22;8756;49.29324300;8.70599800;2023-02-20T04:12:29;6.50;99.90
5848;DHT22;8756;49.29324300;8.70599800;2023-02-20T04:14:58;6.50;99.90
5848;DHT22;8756;49.29324300;8.70599800;2023-02-20T04:17:29;6.50;99.90
5848;DHT22;8756;49.29324300;8.70599800;2023-02-20T04:19:57;6.50;99.90
5848;DHT22;8756;49.29324300;8.70599800;2023-02-20T04:22:26;6.40;99.90
5848;DHT22;8756;49.29324300;8.70599800;2023-02-20T04:25:00;6.50;99.90
5848;DHT22;8756;49.29324300;8.70599800;2023-02-20T04:27:45;6.50;99.90
5848;DHT22;8756;49.29324300;8.70599800;2023-02-20T04:30:11;6.40;99.90
5848;DHT22;8756;49.29324300;8.70599800;2023-02-20T04:32:37;6.40;99.90
5848;DHT22;8756;49.29324300;8.70599800;2023-02-20T04:35:03;6.40;99.90
5848;DHT22;8756;49.29324300;8.70599800;2023-02-20T04:37:29;6.40;99.90
5848;DHT22;8756;49.29324300;8.70599800;2023-02-20T04:39:54;6.40;99.90
5848;DHT22;8756;49.29324300;8.70599800;2023-02-20T04:42:20;6.40;99.90
5848;DHT22;8756;49.29324300;8.70599800;2023-02-20T04:44:45;6.40;99.90
5848;DHT22;8756;49.29324300;8.70599800;2023-02-20T04:47:16;6.40;99.90
5848;DHT22;8756;49.29324300;8.70599800;2023-02-20T04:49:42;6.40;99.90
5848;DHT22;8756;49.29324300;8.70599800;2023-02-20T04:52:08;6.40;99.90
5848;DHT22;8756;49.29324300;8.70599800;2023-02-20T04:54:34;6.40;99.90
5848;DHT22;8756;49.29324300;8.70599800;2023-02-20T04:56:59;6.40;99.90
5848;DHT22;8756;49.29324300;8.70599800;2023-02-20T04:59:25;6.30;99.90
5848;DHT22;8756;49.29324300;8.70599800;2023-02-20T05:01:51;6.30;99.90
5848;DHT22;8756;49.29324300;8.70599800;2023-02-20T05:04:19;6.30;99.90
5848;DHT22;8756;49.29324300;8.70599800;2023-02-20T05:06:48;6.30;99.90
5848;DHT22;8756;49.29324300;8.70599800;2023-02-20T05:09:16;6.30;99.90
5848;DHT22;8756;49.29324300;8.70599800;2023-02-20T05:11:41;6.30;99.90
5848;DHT22;8756;49.29324300;8.70599800;2023-02-20T05:14:07;6.30;99.90
5848;DHT22;8756;49.29324300;8.70599800;2023-02-20T05:16:36;6.30;99.90
5848;DHT22;8756;49.29324300;8.70599800;2023-02-20T05:19:03;6.30;99.90
5848;DHT22;8756;49.29324300;8.70599800;2023-02-20T05:21:29;6.30;99.90
5848;DHT22;8756;49.29324300;8.70599800;2023-02-20T05:24:14;6.30;99.90
5848;DHT22;8756;49.29324300;8.70599800;2023-02-20T05:26:39;6.30;99.90
5848;DHT22;8756;49.29324300;8.70599800;2023-02-20T05:29:06;6.30;99.90
5848;DHT22;8756;49.29324300;8.70599800;2023-02-20T05:31:34;6.20;99.90
5848;DHT22;8756;49.29324300;8.70599800;2023-02-20T05:34:00;6.20;99.90
5848;DHT22;8756;49.29324300;8.70599800;2023-02-20T05:36:26;6.20;99.90
5848;DHT22;8756;49.29324300;8.70599800;2023-02-20T05:38:51;6.10;99.90
5848;DHT22;8756;49.29324300;8.70599800;2023-02-20T05:41:18;6.10;99.90
5848;DHT22;8756;49.29324300;8.70599800;2023-02-20T05:43:44;6.10;99.90
5848;DHT22;8756;49.29324300;8.70599800;2023-02-20T05:46:10;6.00;99.90
5848;DHT22;8756;49.29324300;8.70599800;2023-02-20T05:48:37;6.00;99.90
5848;DHT22;8756;49.29324300;8.70599800;2023-02-20T05:51:03;6.00;99.90
5848;DHT22;8756;49.29324300;8.70599800;2023-02-20T05:53:31;6.00;99.90
5848;DHT22;8756;49.29324300;8.70599800;2023-02-20T05:55:57;6.00;99.90
5848;DHT22;8756;49.29324300;8.70599800;2023-02-20T05:58:23;6.00;99.90
5848;DHT22;8756;49.29324300;8.70599800;2023-02-20T06:00:50;6.00;99.90
5848;DHT22;8756;49.29324300;8.70599800;2023-02-20T06:03:16;6.00;99.90
5848;DHT22;8756;49.29324300;8.70599800;2023-02-20T06:05:42;6.00;99.90
5848;DHT22;8756;49.29324300;8.70599800;2023-02-20T06:08:09;5.90;99.90
5848;DHT22;8756;49.29324300;8.70599800;2023-02-20T06:10:34;6.00;99.90
5848;DHT22;8756;49.29324300;8.70599800;2023-02-20T06:13:00;5.90;99.90
5848;DHT22;8756;49.29324300;8.70599800;2023-02-20T06:15:27;6.00;99.90
5848;DHT22;8756;49.29324300;8.70599800;2023-02-20T06:17:53;6.00;99.90
5848;DHT22;8756;49.29324300;8.70599800;2023-02-20T06:20:18;6.00;99.90
5848;DHT22;8756;49.29324300;8.70599800;2023-02-20T06:22:47;6.00;99.90
5848;DHT22;8756;49.29324300;8.70599800;2023-02-20T06:25:13;6.00;99.90
5848;DHT22;8756;49.29324300;8.70599800;2023-02-20T06:27:39;6.00;99.90
5848;DHT22;8756;49.29324300;8.70599800;2023-02-20T06:30:05;6.00;99.90
5848;DHT22;8756;49.29324300;8.70599800;2023-02-20T06:32:31;6.00;99.90
5848;DHT22;8756;49.29324300;8.70599800;2023-02-20T06:34:56;6.00;99.90
5848;DHT22;8756;49.29324300;8.70599800;2023-02-20T06:37:22;6.00;99.90
5848;DHT22;8756;49.29324300;8.70599800;2023-02-20T06:39:48;6.00;99.90
5848;DHT22;8756;49.29324300;8.70599800;2023-02-20T06:42:14;6.00;99.90
5848;DHT22;8756;49.29324300;8.70599800;2023-02-20T06:44:40;6.00;99.90
5848;DHT22;8756;49.29324300;8.70599800;2023-02-20T06:47:06;6.10;99.90
5848;DHT22;8756;49.29324300;8.70599800;2023-02-20T06:49:37;6.10;99.90
5848;DHT22;8756;49.29324300;8.70599800;2023-02-20T06:52:04;6.10;99.90
5848;DHT22;8756;49.29324300;8.70599800;2023-02-20T06:54:30;6.10;99.90
5848;DHT22;8756;49.29324300;8.70599800;2023-02-20T06:56:56;6.10;99.90
5848;DHT22;8756;49.29324300;8.70599800;2023-02-20T06:59:24;6.10;99.90
5848;DHT22;8756;49.29324300;8.70599800;2023-02-20T07:01:50;6.10;99.90
5848;DHT22;8756;49.29324300;8.70599800;2023-02-20T07:04:24;6.10;99.90
5848;DHT22;8756;49.29324300;8.70599800;2023-02-20T07:06:53;6.10;99.90
5848;DHT22;8756;49.29324300;8.70599800;2023-02-20T07:09:19;6.10;99.90
5848;DHT22;8756;49.29324300;8.70599800;2023-02-20T07:11:45;6.10;99.90
5848;DHT22;8756;49.29324300;8.70599800;2023-02-20T07:14:12;6.10;99.90
5848;DHT22;8756;49.29324300;8.70599800;2023-02-20T07:16:37;6.20;99.90
5848;DHT22;8756;49.29324300;8.70599800;2023-02-20T07:19:03;6.20;99.90
5848;DHT22;8756;49.29324300;8.70599800;2023-02-20T07:21:29;6.20;99.90
5848;DHT22;8756;49.29324300;8.70599800;2023-02-20T07:23:55;6.20;99.90
5848;DHT22;8756;49.29324300;8.70599800;2023-02-20T07:26:23;6.20;99.90
5848;DHT22;8756;49.29324300;8.70599800;2023-02-20T07:28:52;6.20;99.90
5848;DHT22;8756;49.29324300;8.70599800;2023-02-20T07:31:18;6.20;99.90
5848;DHT22;8756;49.29324300;8.70599800;2023-02-20T07:33:44;6.30;99.90
5848;DHT22;8756;49.29324300;8.70599800;2023-02-20T07:36:11;6.30;99.90
5848;DHT22;8756;49.29324300;8.70599800;2023-02-20T07:38:38;6.30;99.90
5848;DHT22;8756;49.29324300;8.70599800;2023-02-20T07:41:04;6.30;99.90
5848;DHT22;8756;49.29324300;8.70599800;2023-02-20T07:43:30;6.30;99.90
5848;DHT22;8756;49.29324300;8.70599800;2023-02-20T07:45:56;6.40;99.90
5848;DHT22;8756;49.29324300;8.70599800;2023-02-20T07:48:22;6.40;99.90
5848;DHT22;8756;49.29324300;8.70599800;2023-02-20T07:50:48;6.40;99.90
5848;DHT22;8756;49.29324300;8.70599800;2023-02-20T07:53:20;6.40;99.90
5848;DHT22;8756;49.29324300;8.70599800;2023-02-20T07:55:46;6.50;99.90
5848;DHT22;8756;49.29324300;8.70599800;2023-02-20T07:58:12;6.50;99.90
5848;DHT22;8756;49.29324300;8.70599800;2023-02-20T08:00:37;6.50;99.90
5848;DHT22;8756;49.29324300;8.70599800;2023-02-20T08:03:03;6.50;99.90
5848;DHT22;8756;49.29324300;8.70599800;2023-02-20T08:05:29;6.50;99.90
5848;DHT22;8756;49.29324300;8.70599800;2023-02-20T08:07:55;6.50;99.90
5848;DHT22;8756;49.29324300;8.70599800;2023-02-20T08:10:25;6.60;99.90
5848;DHT22;8756;49.29324300;8.70599800;2023-02-20T08:12:52;6.60;99.90
5848;DHT22;8756;49.29324300;8.70599800;2023-02-20T08:15:20;6.70;99.90
5848;DHT22;8756;49.29324300;8.70599800;2023-02-20T08:17:47;6.70;99.90
5848;DHT22;8756;49.29324300;8.70599800;2023-02-20T08:20:14;6.70;99.90
5848;DHT22;8756;49.29324300;8.70599800;2023-02-20T08:22:43;6.80;99.90
5848;DHT22;8756;49.29324300;8.70599800;2023-02-20T08:25:09;6.80;99.90
5848;DHT22;8756;49.29324300;8.70599800;2023-02-20T08:27:35;6.80;99.90
5848;DHT22;8756;49.29324300;8.70599800;2023-02-20T08:30:10;6.80;99.90
5848;DHT22;8756;49.29324300;8.70599800;2023-02-20T08:32:38;6.90;99.90
5848;DHT22;8756;49.29324300;8.70599800;2023-02-20T08:35:04;7.00;99.90
5848;DHT22;8756;49.29324300;8.70599800;2023-02-20T08:37:30;7.00;99.90
5848;DHT22;8756;49.29324300;8.70599800;2023-02-20T08:39:55;7.00;99.90
5848;DHT22;8756;49.29324300;8.70599800;2023-02-20T08:42:21;7.10;99.90
5848;DHT22;8756;49.29324300;8.70599800;2023-02-20T08:44:47;7.20;99.90
5848;DHT22;8756;49.29324300;8.70599800;2023-02-20T08:47:12;7.30;99.90
5848;DHT22;8756;49.29324300;8.70599800;2023-02-20T08:49:38;7.40;99.90
5848;DHT22;8756;49.29324300;8.70599800;2023-02-20T08:52:04;7.50;99.90
5848;DHT22;8756;49.29324300;8.70599800;2023-02-20T08:54:30;7.60;99.90
5848;DHT22;8756;49.29324300;8.70599800;2023-02-20T08:56:56;7.70;99.90
5848;DHT22;8756;49.29324300;8.70599800;2023-02-20T08:59:22;7.80;99.90
5848;DHT22;8756;49.29324300;8.70599800;2023-02-20T09:01:47;7.90;99.90
5848;DHT22;8756;49.29324300;8.70599800;2023-02-20T09:04:13;7.90;99.90
5848;DHT22;8756;49.29324300;8.70599800;2023-02-20T09:06:41;8.00;99.90
5848;DHT22;8756;49.29324300;8.70599800;2023-02-20T09:09:06;8.10;99.90
5848;DHT22;8756;49.29324300;8.70599800;2023-02-20T09:11:32;8.10;99.90
5848;DHT22;8756;49.29324300;8.70599800;2023-02-20T09:13:58;8.20;99.90
5848;DHT22;8756;49.29324300;8.70599800;2023-02-20T09:16:24;8.20;99.90
5848;DHT22;8756;49.29324300;8.70599800;2023-02-20T09:18:50;8.30;99.90
5848;DHT22;8756;49.29324300;8.70599800;2023-02-20T09:21:18;8.30;99.90
5848;DHT22;8756;49.29324300;8.70599800;2023-02-20T09:23:44;8.40;99.90
5848;DHT22;8756;49.29324300;8.70599800;2023-02-20T09:26:10;8.40;99.90
5848;DHT22;8756;49.29324300;8.70599800;2023-02-20T09:28:36;8.40;99.90
5848;DHT22;8756;49.29324300;8.70599800;2023-02-20T09:31:02;8.50;99.90
5848;DHT22;8756;49.29324300;8.70599800;2023-02-20T09:33:28;8.50;99.90
5848;DHT22;8756;49.29324300;8.70599800;2023-02-20T09:35:55;8.50;99.90
5848;DHT22;8756;49.29324300;8.70599800;2023-02-20T09:38:21;8.50;99.90
5848;DHT22;8756;49.29324300;8.70599800;2023-02-20T09:40:49;8.50;99.90
5848;DHT22;8756;49.29324300;8.70599800;2023-02-20T09:43:25;8.60;99.90
5848;DHT22;8756;49.29324300;8.70599800;2023-02-20T09:46:15;8.60;99.90
5848;DHT22;8756;49.29324300;8.70599800;2023-02-20T09:48:58;8.60;99.90
5848;DHT22;8756;49.29324300;8.70599800;2023-02-20T09:51:42;8.60;99.90
5848;DHT22;8756;49.29324300;8.70599800;2023-02-20T09:54:17;8.60;99.90
5848;DHT22;8756;49.29324300;8.70599800;2023-02-20T09:56:55;8.60;99.90
5848;DHT22;8756;49.29324300;8.70599800;2023-02-20T09:59:28;8.60;99.90
5848;DHT22;8756;49.29324300;8.70599800;2023-02-20T10:02:30;8.70;99.90
5848;DHT22;8756;49.29324300;8.70599800;2023-02-20T10:05:01;8.70;99.90
5848;DHT22;8756;49.29324300;8.70599800;2023-02-20T10:07:39;8.80;99.90
5848;DHT22;8756;49.29324300;8.70599800;2023-02-20T10:10:19;8.90;99.90
5848;DHT22;8756;49.29324300;8.70599800;2023-02-20T10:25:02;9.20;99.90
5848;DHT22;8756;49.29324300;8.70599800;2023-02-20T10:27:33;9.30;99.90
5848;DHT22;8756;49.29324300;8.70599800;2023-02-20T10:30:03;9.40;99.90
5848;DHT22;8756;49.29324300;8.70599800;2023-02-20T10:35:11;9.50;99.90
5848;DHT22;8756;49.29324300;8.70599800;2023-02-20T10:37:42;9.50;99.90
5848;DHT22;8756;49.29324300;8.70599800;2023-02-20T10:40:26;9.60;99.90
5848;DHT22;8756;49.29324300;8.70599800;2023-02-20T10:43:20;9.60;99.90
5848;DHT22;8756;49.29324300;8.70599800;2023-02-20T10:46:04;9.80;99.90
5848;DHT22;8756;49.29324300;8.70599800;2023-02-20T10:48:33;9.80;99.90
5848;DHT22;8756;49.29324300;8.70599800;2023-02-20T10:51:07;9.90;99.90
5848;DHT22;8756;49.29324300;8.70599800;2023-02-20T10:53:57;9.90;99.90
5848;DHT22;8756;49.29324300;8.70599800;2023-02-20T10:56:36;9.90;99.90
5848;DHT22;8756;49.29324300;8.70599800;2023-02-20T11:02:20;10.10;99.90
5848;DHT22;8756;49.29324300;8.70599800;2023-02-20T11:04:52;10.10;99.90
5848;DHT22;8756;49.29324300;8.70599800;2023-02-20T11:07:22;10.20;99.90
5848;DHT22;8756;49.29324300;8.70599800;2023-02-20T11:09:50;10.20;99.90
5848;DHT22;8756;49.29324300;8.70599800;2023-02-20T11:12:24;10.30;99.90
5848;DHT22;8756;49.29324300;8.70599800;2023-02-20T11:14:56;10.30;99.90
5848;DHT22;8756;49.29324300;8.70599800;2023-02-20T11:17:26;10.40;99.90
5848;DHT22;8756;49.29324300;8.70599800;2023-02-20T11:19:55;10.40;99.90
5848;DHT22;8756;49.29324300;8.70599800;2023-02-20T11:25:19;10.50;99.90
5848;DHT22;8756;49.29324300;8.70599800;2023-02-20T11:27:52;10.60;99.90
5848;DHT22;8756;49.29324300;8.70599800;2023-02-20T11:30:31;10.70;99.90
5848;DHT22;8756;49.29324300;8.70599800;2023-02-20T11:33:13;10.70;99.90
5848;DHT22;8756;49.29324300;8.70599800;2023-02-20T11:35:42;10.80;99.90
5848;DHT22;8756;49.29324300;8.70599800;2023-02-20T11:43:35;10.90;99.90
5848;DHT22;8756;49.29324300;8.70599800;2023-02-20T11:46:16;10.90;99.90
5848;DHT22;8756;49.29324300;8.70599800;2023-02-20T11:52:27;11.00;99.90
5848;DHT22;8756;49.29324300;8.70599800;2023-02-20T11:55:31;11.10;99.90
5848;DHT22;8756;49.29324300;8.70599800;2023-02-20T11:57:58;11.20;99.90
5848;DHT22;8756;49.29324300;8.70599800;2023-02-20T12:00:29;11.20;99.90
5848;DHT22;8756;49.29324300;8.70599800;2023-02-20T12:08:35;11.40;99.90
5848;DHT22;8756;49.29324300;8.70599800;2023-02-20T12:11:12;11.40;99.90
5848;DHT22;8756;49.29324300;8.70599800;2023-02-20T12:13:45;11.50;99.90
5848;DHT22;8756;49.29324300;8.70599800;2023-02-20T12:16:22;11.50;99.90
5848;DHT22;8756;49.29324300;8.70599800;2023-02-20T12:19:00;11.60;99.90
5848;DHT22;8756;49.29324300;8.70599800;2023-02-20T12:24:54;11.60;99.90
5848;DHT22;8756;49.29324300;8.70599800;2023-02-20T12:30:23;11.70;99.90
5848;DHT22;8756;49.29324300;8.70599800;2023-02-20T12:36:47;11.80;99.90
5848;DHT22;8756;49.29324300;8.70599800;2023-02-20T12:39:37;11.90;99.90
5848;DHT22;8756;49.29324300;8.70599800;2023-02-20T12:45:17;12.00;99.90
5848;DHT22;8756;49.29324300;8.70599800;2023-02-20T12:48:18;12.00;99.90
5848;DHT22;8756;49.29324300;8.70599800;2023-02-20T12:57:21;12.20;99.90
5848;DHT22;8756;49.29324300;8.70599800;2023-02-20T12:59:57;12.30;99.90
5848;DHT22;8756;49.29324300;8.70599800;2023-02-20T13:02:32;12.30;99.90
5848;DHT22;8756;49.29324300;8.70599800;2023-02-20T13:05:01;12.40;99.90
5848;DHT22;8756;49.29324300;8.70599800;2023-02-20T13:07:51;12.40;99.90
5848;DHT22;8756;49.29324300;8.70599800;2023-02-20T13:10:29;12.50;99.90
5848;DHT22;8756;49.29324300;8.70599800;2023-02-20T13:13:09;12.50;99.90
5848;DHT22;8756;49.29324300;8.70599800;2023-02-20T13:15:58;12.50;99.90
5848;DHT22;8756;49.29324300;8.70599800;2023-02-20T13:18:47;12.50;99.90
5848;DHT22;8756;49.29324300;8.70599800;2023-02-20T13:21:19;12.60;99.90
5848;DHT22;8756;49.29324300;8.70599800;2023-02-20T13:23:47;12.60;99.90
5848;DHT22;8756;49.29324300;8.70599800;2023-02-20T13:29:16;12.60;99.90
5848;DHT22;8756;49.29324300;8.70599800;2023-02-20T13:31:51;12.70;99.90
5848;DHT22;8756;49.29324300;8.70599800;2023-02-20T13:36:48;12.70;99.90
5848;DHT22;8756;49.29324300;8.70599800;2023-02-20T13:41:59;12.80;99.90
5848;DHT22;8756;49.29324300;8.70599800;2023-02-20T13:44:32;12.80;99.90
5848;DHT22;8756;49.29324300;8.70599800;2023-02-20T13:54:56;13.00;99.90
5848;DHT22;8756;49.29324300;8.70599800;2023-02-20T13:57:22;13.00;99.90
5848;DHT22;8756;49.29324300;8.70599800;2023-02-20T13:59:53;13.10;99.90
5848;DHT22;8756;49.29324300;8.70599800;2023-02-20T14:02:21;13.10;99.90
5848;DHT22;8756;49.29324300;8.70599800;2023-02-20T14:05:05;13.10;99.90
5848;DHT22;8756;49.29324300;8.70599800;2023-02-20T14:07:37;13.10;99.90
5848;DHT22;8756;49.29324300;8.70599800;2023-02-20T14:12:42;13.20;99.90
5848;DHT22;8756;49.29324300;8.70599800;2023-02-20T14:15:09;13.30;99.90
5848;DHT22;8756;49.29324300;8.70599800;2023-02-20T14:17:35;13.30;99.90
5848;DHT22;8756;49.29324300;8.70599800;2023-02-20T14:20:05;13.30;99.90
5848;DHT22;8756;49.29324300;8.70599800;2023-02-20T14:22:39;13.30;99.90
5848;DHT22;8756;49.29324300;8.70599800;2023-02-20T14:27:38;13.40;99.90
5848;DHT22;8756;49.29324300;8.70599800;2023-02-20T14:32:44;13.40;99.90
5848;DHT22;8756;49.29324300;8.70599800;2023-02-20T14:35:46;13.40;99.90
5848;DHT22;8756;49.29324300;8.70599800;2023-02-20T14:38:22;13.40;99.90
5848;DHT22;8756;49.29324300;8.70599800;2023-02-20T14:40:50;13.40;99.90
5848;DHT22;8756;49.29324300;8.70599800;2023-02-20T14:43:22;13.40;99.90
5848;DHT22;8756;49.29324300;8.70599800;2023-02-20T14:45:59;13.50;99.90
5848;DHT22;8756;49.29324300;8.70599800;2023-02-20T14:48:29;13.50;99.90
5848;DHT22;8756;49.29324300;8.70599800;2023-02-20T14:51:17;13.50;99.90
5848;DHT22;8756;49.29324300;8.70599800;2023-02-20T14:53:58;13.50;99.90
5848;DHT22;8756;49.29324300;8.70599800;2023-02-20T14:56:40;13.40;99.90
5848;DHT22;8756;49.29324300;8.70599800;2023-02-20T14:59:29;13.40;99.90
5848;DHT22;8756;49.29324300;8.70599800;2023-02-20T15:01:58;13.40;99.90
5848;DHT22;8756;49.29324300;8.70599800;2023-02-20T15:04:26;13.40;99.90
5848;DHT22;8756;49.29324300;8.70599800;2023-02-20T15:06:59;13.40;99.90
5848;DHT22;8756;49.29324300;8.70599800;2023-02-20T15:09:57;13.40;99.90
5848;DHT22;8756;49.29324300;8.70599800;2023-02-20T15:12:33;13.40;99.90
5848;DHT22;8756;49.29324300;8.70599800;2023-02-20T15:15:12;13.40;99.90
5848;DHT22;8756;49.29324300;8.70599800;2023-02-20T15:17:42;13.40;99.90
5848;DHT22;8756;49.29324300;8.70599800;2023-02-20T15:20:35;13.40;99.90
5848;DHT22;8756;49.29324300;8.70599800;2023-02-20T15:23:29;13.40;99.90
5848;DHT22;8756;49.29324300;8.70599800;2023-02-20T15:25:58;13.40;99.90
5848;DHT22;8756;49.29324300;8.70599800;2023-02-20T15:28:28;13.30;99.90
5848;DHT22;8756;49.29324300;8.70599800;2023-02-20T15:31:06;13.30;99.90
5848;DHT22;8756;49.29324300;8.70599800;2023-02-20T15:33:52;13.30;99.90
5848;DHT22;8756;49.29324300;8.70599800;2023-02-20T15:36:21;13.20;99.90
5848;DHT22;8756;49.29324300;8.70599800;2023-02-20T15:38:54;13.20;99.90
5848;DHT22;8756;49.29324300;8.70599800;2023-02-20T15:41:21;13.20;99.90
5848;DHT22;8756;49.29324300;8.70599800;2023-02-20T15:43:47;13.10;99.90
5848;DHT22;8756;49.29324300;8.70599800;2023-02-20T15:46:15;13.10;99.90
5848;DHT22;8756;49.29324300;8.70599800;2023-02-20T15:48:41;13.10;99.90
5848;DHT22;8756;49.29324300;8.70599800;2023-02-20T15:51:08;13.00;99.90
5848;DHT22;8756;49.29324300;8.70599800;2023-02-20T15:53:35;13.00;99.90
5848;DHT22;8756;49.29324300;8.70599800;2023-02-20T15:56:01;13.00;99.90